createdAt,value
2023-04-06T00:00:32.233Z,8.10
2023-04-06T00:03:00.825Z,8.53
2023-04-06T00:05:31.551Z,7.97
2023-04-06T00:08:00.598Z,7.90
2023-04-06T00:10:30.503Z,7.90
2023-04-06T00:12:59.050Z,8.47
2023-04-06T00:15:27.461Z,8.50
2023-04-06T00:17:55.998Z,9.27
2023-04-06T00:20:24.448Z,8.37
2023-04-06T00:22:52.897Z,9.30
2023-04-06T00:25:21.447Z,9.50
2023-04-06T00:27:51.273Z,10.43
2023-04-06T00:30:19.852Z,11.27
2023-04-06T00:32:48.335Z,10.27
2023-04-06T00:35:16.874Z,9.90
2023-04-06T00:37:45.514Z,9.83
2023-04-06T00:40:13.994Z,9.63
2023-04-06T00:42:42.497Z,10.13
2023-04-06T00:45:13.238Z,9.87
2023-04-06T00:47:41.760Z,9.37
2023-04-06T00:50:10.701Z,10.00
2023-04-06T00:52:39.141Z,10.07
2023-04-06T00:55:08.058Z,9.33
2023-04-06T00:57:36.556Z,10.00
2023-04-06T01:00:05.328Z,9.23
2023-04-06T01:02:35.222Z,9.30
2023-04-06T01:05:03.706Z,8.30
2023-04-06T01:07:32.223Z,8.87
2023-04-06T01:10:00.714Z,8.37
2023-04-06T01:12:29.128Z,9.07
2023-04-06T01:14:57.664Z,8.30
2023-04-06T01:17:26.295Z,8.63
2023-04-06T01:19:56.169Z,8.27
2023-04-06T01:22:27.250Z,8.20
2023-04-06T01:24:55.937Z,8.27
2023-04-06T01:27:24.436Z,7.50
2023-04-06T01:29:52.851Z,8.20
2023-04-06T01:32:21.846Z,8.20
2023-04-06T01:34:50.534Z,8.10
2023-04-06T01:37:19.122Z,7.73
2023-04-06T01:39:49.008Z,8.00
2023-04-06T01:42:17.419Z,7.73
2023-04-06T01:44:45.958Z,7.90
2023-04-06T01:47:14.403Z,7.93
2023-04-06T01:49:42.851Z,7.83
2023-04-06T01:52:11.440Z,7.83
2023-04-06T01:54:39.860Z,7.53
2023-04-06T01:57:09.651Z,7.90
2023-04-06T01:59:38.175Z,8.20
2023-04-06T02:02:06.698Z,8.90
2023-04-06T02:04:35.165Z,8.37
2023-04-06T02:07:03.623Z,8.20
2023-04-06T02:09:32.056Z,8.67
2023-04-06T02:12:02.322Z,9.10
2023-04-06T02:14:32.211Z,8.47
2023-04-06T02:17:00.654Z,9.20
2023-04-06T02:19:29.092Z,8.87
2023-04-06T02:21:57.761Z,8.80
2023-04-06T02:24:26.249Z,9.33
2023-04-06T02:26:54.681Z,8.53
2023-04-06T02:29:23.179Z,9.77
2023-04-06T02:31:53.014Z,9.20
2023-04-06T02:34:21.491Z,8.83
2023-04-06T02:36:50.270Z,9.07
2023-04-06T02:39:18.724Z,8.93
2023-04-06T02:41:47.199Z,9.27
2023-04-06T02:44:15.724Z,10.57
2023-04-06T02:46:44.134Z,9.57
2023-04-06T02:49:13.969Z,9.57
2023-04-06T02:51:42.391Z,9.43
2023-04-06T02:54:11.026Z,10.00
2023-04-06T02:56:39.455Z,10.13
2023-04-06T02:59:08.187Z,10.07
2023-04-06T03:01:37.244Z,9.77
2023-04-06T03:04:05.939Z,10.50
2023-04-06T03:06:35.797Z,10.30
2023-04-06T03:09:04.245Z,9.90
2023-04-06T03:11:32.648Z,9.57
2023-04-06T03:14:01.286Z,9.60
2023-04-06T03:16:29.713Z,10.03
2023-04-06T03:18:58.169Z,9.90
2023-04-06T03:21:26.598Z,10.30
2023-04-06T03:23:56.416Z,10.33
2023-04-06T03:26:24.873Z,10.87
2023-04-06T03:28:53.348Z,9.60
2023-04-06T03:31:21.866Z,9.67
2023-04-06T03:33:50.460Z,10.07
2023-04-06T03:36:18.953Z,10.03
2023-04-06T03:38:47.414Z,9.53
2023-04-06T03:41:17.444Z,9.33
2023-04-06T03:43:45.881Z,10.17
2023-04-06T03:46:14.711Z,10.13
2023-04-06T03:48:43.283Z,9.93
2023-04-06T03:51:11.705Z,9.57
2023-04-06T03:53:40.254Z,9.67
2023-04-06T03:56:08.906Z,9.23
2023-04-06T03:58:38.804Z,9.87
2023-04-06T04:01:07.329Z,9.07
2023-04-06T04:03:36.286Z,9.70
2023-04-06T04:06:04.925Z,9.37
2023-04-06T04:08:33.657Z,9.60
2023-04-06T04:11:02.278Z,9.47
2023-04-06T04:13:30.772Z,9.93
2023-04-06T04:16:01.030Z,9.83
2023-04-06T04:18:29.626Z,9.87
2023-04-06T04:20:58.080Z,9.20
2023-04-06T04:23:26.641Z,10.07
2023-04-06T04:25:55.207Z,9.20
2023-04-06T04:28:23.794Z,9.10
2023-04-06T04:30:52.275Z,9.10
2023-04-06T04:33:22.066Z,8.47
2023-04-06T04:35:50.520Z,9.30
2023-04-06T04:38:19.009Z,8.83
2023-04-06T04:40:47.472Z,9.00
2023-04-06T04:43:16.189Z,8.90
2023-04-06T04:45:44.652Z,9.77
2023-04-06T04:48:13.165Z,9.57
2023-04-06T04:50:43.203Z,9.53
2023-04-06T04:53:11.673Z,9.50
2023-04-06T04:55:40.143Z,9.57
2023-04-06T04:58:09.994Z,9.50
2023-04-06T05:00:38.494Z,8.67
2023-04-06T05:03:07.809Z,8.77
2023-04-06T05:05:36.289Z,8.57
2023-04-06T05:08:06.314Z,8.43
2023-04-06T05:10:35.236Z,8.10
2023-04-06T05:13:03.808Z,8.87
2023-04-06T05:15:32.351Z,8.70
2023-04-06T05:18:01.160Z,9.00
2023-04-06T05:20:29.907Z,9.27
2023-04-06T05:22:58.393Z,8.50
2023-04-06T05:25:28.293Z,9.10
2023-04-06T05:27:56.873Z,8.63
2023-04-06T05:30:25.457Z,8.60
2023-04-06T05:32:54.093Z,8.70
2023-04-06T05:35:22.654Z,8.70
2023-04-06T05:37:51.256Z,9.53
2023-04-06T05:40:19.761Z,8.23
2023-04-06T05:42:50.513Z,8.40
2023-04-06T05:45:19.513Z,7.97
2023-04-06T05:47:48.087Z,8.77
2023-04-06T05:50:18.071Z,8.00
2023-04-06T05:52:47.458Z,9.27
2023-04-06T05:55:15.991Z,8.40
2023-04-06T05:57:44.574Z,9.77
2023-04-06T06:00:15.618Z,8.37
2023-04-06T06:02:44.410Z,8.23
2023-04-06T06:05:12.992Z,8.67
2023-04-06T06:07:41.439Z,8.03
2023-04-06T06:10:10.791Z,8.40
2023-04-06T06:12:39.346Z,7.50
2023-04-06T06:15:08.589Z,8.40
2023-04-06T06:17:39.155Z,9.20
2023-04-06T06:20:08.372Z,7.47
2023-04-06T06:22:36.846Z,8.97
2023-04-06T06:25:05.364Z,8.30
2023-04-06T06:27:33.803Z,7.87
2023-04-06T06:30:02.404Z,8.17
2023-04-06T06:32:30.908Z,7.20
2023-04-06T06:35:01.104Z,7.47
2023-04-06T06:37:31.123Z,7.57
2023-04-06T06:39:59.790Z,7.40
2023-04-06T06:42:28.307Z,7.57
2023-04-06T06:44:57.544Z,7.83
2023-04-06T06:47:26.549Z,7.05
2023-04-06T06:49:55.272Z,7.43
2023-04-06T06:52:25.333Z,7.07
2023-04-06T06:54:56.422Z,7.60
2023-04-06T06:57:26.094Z,6.90
2023-04-06T06:59:54.760Z,6.50
2023-04-06T07:02:23.349Z,7.73
2023-04-06T07:04:52.247Z,7.00
2023-04-06T07:07:20.937Z,6.97
2023-04-06T07:09:50.944Z,7.40
2023-04-06T07:12:19.475Z,7.35
2023-04-06T07:14:47.941Z,7.78
2023-04-06T07:17:16.591Z,7.47
2023-04-06T07:19:45.081Z,6.70
2023-04-06T07:22:13.653Z,7.35
2023-04-06T07:24:42.278Z,7.38
2023-04-06T07:27:12.166Z,7.88
2023-04-06T07:29:40.893Z,6.97
2023-04-06T07:32:09.359Z,7.35
2023-04-06T07:34:37.836Z,7.32
2023-04-06T07:37:06.310Z,7.57
2023-04-06T07:39:34.757Z,7.55
2023-04-06T07:42:03.208Z,8.13
2023-04-06T07:44:33.011Z,8.40
2023-04-06T07:47:01.508Z,7.25
2023-04-06T07:49:30.191Z,7.60
2023-04-06T07:51:58.886Z,8.38
2023-04-06T07:54:27.343Z,7.63
2023-04-06T07:56:56.108Z,8.30
2023-04-06T07:59:24.608Z,7.93
2023-04-06T08:01:54.550Z,7.85
2023-04-06T08:04:23.290Z,8.05
2023-04-06T08:06:51.964Z,7.78
2023-04-06T08:09:20.543Z,7.88
2023-04-06T08:11:49.702Z,8.07
2023-04-06T08:14:18.215Z,8.23
2023-04-06T08:16:46.916Z,7.65
2023-04-06T08:19:18.328Z,7.57
2023-04-06T08:21:47.084Z,8.88
2023-04-06T08:24:15.912Z,7.72
2023-04-06T08:26:44.643Z,8.32
2023-04-06T08:29:13.352Z,8.38
2023-04-06T08:31:42.055Z,9.38
2023-04-06T08:34:13.284Z,8.68
2023-04-06T08:36:44.011Z,9.73
2023-04-06T08:39:12.430Z,8.10
2023-04-06T08:41:40.878Z,8.77
2023-04-06T08:44:09.487Z,8.80
2023-04-06T08:46:38.259Z,8.52
2023-04-06T08:49:07.874Z,9.25
2023-04-06T08:51:38.399Z,9.20
2023-04-06T08:54:08.496Z,8.30
2023-04-06T08:56:40.067Z,9.85
2023-04-06T08:59:09.087Z,8.60
2023-04-06T09:01:42.375Z,8.98
2023-04-06T09:04:12.426Z,9.30
2023-04-06T09:06:41.747Z,9.65
2023-04-06T09:09:12.722Z,9.65
2023-04-06T09:11:45.441Z,9.15
2023-04-06T09:14:13.904Z,9.18
2023-04-06T09:16:43.305Z,9.70
2023-04-06T09:19:12.038Z,9.32
2023-04-06T09:21:40.870Z,9.43
2023-04-06T09:24:10.804Z,9.55
2023-04-06T09:26:50.299Z,8.63
2023-04-06T09:29:27.831Z,10.13
2023-04-06T09:32:04.945Z,10.38
2023-04-06T09:34:33.707Z,9.80
2023-04-06T09:37:02.514Z,9.73
2023-04-06T09:39:31.049Z,9.88
2023-04-06T09:42:01.862Z,10.25
2023-04-06T09:44:30.475Z,10.35
2023-04-06T09:47:00.763Z,9.65
2023-04-06T09:49:30.980Z,10.20
2023-04-06T09:52:01.818Z,9.68
2023-04-06T09:54:31.944Z,10.10
2023-04-06T09:57:06.926Z,9.93
2023-04-06T09:59:46.024Z,10.05
2023-04-06T10:02:30.482Z,10.80
2023-04-06T10:05:01.960Z,10.80
2023-04-06T10:07:30.641Z,10.73
2023-04-06T10:09:59.260Z,11.32
2023-04-06T10:12:29.066Z,10.52
2023-04-06T10:14:58.222Z,11.30
2023-04-06T10:17:26.745Z,11.40
2023-04-06T10:19:56.607Z,11.20
2023-04-06T10:22:27.670Z,10.80
2023-04-06T10:24:56.152Z,11.73
2023-04-06T10:27:32.452Z,11.20
2023-04-06T10:30:04.142Z,10.60
2023-04-06T10:32:39.421Z,11.23
2023-04-06T10:35:08.482Z,12.00
2023-04-06T10:37:49.285Z,11.88
2023-04-06T10:40:21.502Z,10.90
2023-04-06T10:42:51.406Z,10.70
2023-04-06T10:45:23.617Z,11.68
2023-04-06T10:47:52.273Z,12.52
2023-04-06T10:50:20.810Z,11.02
2023-04-06T10:52:49.446Z,10.68
2023-04-06T10:55:18.770Z,11.20
2023-04-06T10:57:49.346Z,10.35
2023-04-06T11:00:20.467Z,10.35
2023-04-06T11:02:49.552Z,11.60
2023-04-06T11:05:18.565Z,11.48
2023-04-06T11:07:47.268Z,11.45
2023-04-06T11:10:23.679Z,11.60
2023-04-06T11:12:55.946Z,12.00
2023-04-06T11:15:26.026Z,12.00
2023-04-06T11:17:54.582Z,12.90
2023-04-06T11:22:52.293Z,13.13
2023-04-06T11:25:21.023Z,12.82
2023-04-06T11:27:49.745Z,12.27
2023-04-06T11:30:18.223Z,13.45
2023-04-06T11:32:47.421Z,13.77
2023-04-06T11:35:22.583Z,12.75
2023-04-06T11:37:53.109Z,12.40
2023-04-06T11:40:25.690Z,12.82
2023-04-06T11:42:57.970Z,12.60
2023-04-06T11:45:26.438Z,13.00
2023-04-06T11:48:01.514Z,12.65
2023-04-06T11:50:35.593Z,12.90
2023-04-06T11:53:05.476Z,12.88
2023-04-06T11:55:40.181Z,12.80
2023-04-06T11:58:08.725Z,13.48
2023-04-06T12:00:38.174Z,13.60
2023-04-06T12:03:07.017Z,14.02
2023-04-06T12:05:36.277Z,12.50
2023-04-06T12:08:06.198Z,13.25
2023-04-06T12:10:34.690Z,13.00
2023-04-06T12:13:03.112Z,12.25
2023-04-06T12:15:31.632Z,12.57
2023-04-06T12:18:00.248Z,13.18
2023-04-06T12:20:28.832Z,12.18
2023-04-06T12:22:57.375Z,12.23
2023-04-06T12:25:27.291Z,12.38
2023-04-06T12:27:55.872Z,11.98
2023-04-06T12:30:24.449Z,11.68
2023-04-06T12:32:53.239Z,12.75
2023-04-06T12:35:22.103Z,11.43
2023-04-06T12:37:50.817Z,11.85
2023-04-06T12:40:19.379Z,12.82
2023-04-06T12:42:49.191Z,12.38
2023-04-06T12:45:18.804Z,13.40
2023-04-06T12:47:47.334Z,12.25
2023-04-06T12:50:16.014Z,12.13
2023-04-06T12:52:44.452Z,12.82
2023-04-06T12:55:13.292Z,11.95
2023-04-06T12:57:41.816Z,11.80
2023-04-06T13:00:12.705Z,11.45
2023-04-06T13:02:41.369Z,10.77
2023-04-06T13:05:10.159Z,11.13
2023-04-06T13:07:38.784Z,9.68
2023-04-06T13:10:07.705Z,8.85
2023-04-06T13:12:36.137Z,9.27
2023-04-06T13:15:04.943Z,8.57
2023-04-06T13:17:34.828Z,8.48
2023-04-06T13:20:04.571Z,8.32
2023-04-06T13:22:33.014Z,8.40
2023-04-06T13:25:01.846Z,7.15
2023-04-06T13:27:30.391Z,7.18
2023-04-06T13:29:58.873Z,6.70
2023-04-06T13:32:27.424Z,6.60
2023-04-06T13:34:58.704Z,6.55
2023-04-06T13:37:27.116Z,7.30
2023-04-06T13:39:55.558Z,7.10
2023-04-06T13:42:24.216Z,6.65
2023-04-06T13:44:52.749Z,7.40
2023-04-06T13:47:21.772Z,7.85
2023-04-06T13:49:50.420Z,7.63
2023-04-06T13:52:20.712Z,7.97
2023-04-06T13:54:49.445Z,8.40
2023-04-06T13:57:17.953Z,8.68
2023-04-06T13:59:46.754Z,8.93
2023-04-06T14:02:15.642Z,8.88
2023-04-06T14:04:44.294Z,8.32
2023-04-06T14:07:12.735Z,8.93
2023-04-06T14:09:42.577Z,8.13
2023-04-06T14:12:10.994Z,8.77
2023-04-06T14:14:39.455Z,8.15
2023-04-06T14:17:08.128Z,8.73
2023-04-06T14:19:37.131Z,8.90
2023-04-06T14:22:06.152Z,8.77
2023-04-06T14:24:34.722Z,8.32
2023-04-06T14:27:04.913Z,7.70
2023-04-06T14:29:33.344Z,7.97
2023-04-06T14:32:01.936Z,7.78
2023-04-06T14:34:30.379Z,7.25
2023-04-06T14:36:58.834Z,8.07
2023-04-06T14:39:28.507Z,7.55
2023-04-06T14:41:56.925Z,7.28
2023-04-06T14:44:26.861Z,7.88
2023-04-06T14:46:55.358Z,8.35
2023-04-06T14:49:23.817Z,8.27
2023-04-06T14:51:52.734Z,8.43
2023-04-06T14:54:21.232Z,9.43
2023-04-06T14:56:49.644Z,8.27
2023-04-06T14:59:18.082Z,8.27
2023-04-06T15:01:47.930Z,9.15
2023-04-06T15:04:16.659Z,9.05
2023-04-06T15:06:45.374Z,8.65
2023-04-06T15:09:13.836Z,9.18
2023-04-06T15:11:42.329Z,9.55
2023-04-06T15:14:11.706Z,9.13
2023-04-06T15:16:40.160Z,8.93
2023-04-06T15:19:11.892Z,9.43
2023-04-06T15:21:40.338Z,9.93
2023-04-06T15:24:09.632Z,10.02
2023-04-06T15:26:38.822Z,10.13
2023-04-06T15:29:07.307Z,9.77
2023-04-06T15:31:38.546Z,9.70
2023-04-06T15:34:09.034Z,10.02
2023-04-06T15:36:39.190Z,9.80
2023-04-06T15:39:09.767Z,9.90
2023-04-06T15:41:38.536Z,9.52
2023-04-06T15:44:07.002Z,10.07
2023-04-06T15:46:35.441Z,9.65
2023-04-06T15:49:03.918Z,9.90
2023-04-06T15:51:33.712Z,10.00
2023-04-06T15:54:03.525Z,9.45
2023-04-06T15:56:32.057Z,8.27
2023-04-06T15:59:00.735Z,7.72
2023-04-06T16:01:29.287Z,7.63
2023-04-06T16:03:58.086Z,7.05
2023-04-06T16:06:27.420Z,8.43
2023-04-06T16:08:56.059Z,7.60
2023-04-06T16:11:26.199Z,6.82
2023-04-06T16:13:55.520Z,7.60
2023-04-06T16:16:24.276Z,7.53
2023-04-06T16:18:52.785Z,8.52
2023-04-06T16:21:21.365Z,7.55
2023-04-06T16:23:49.911Z,7.97
2023-04-06T16:26:19.074Z,8.32
2023-04-06T16:28:49.502Z,9.02
2023-04-06T16:31:22.209Z,9.10
2023-04-06T16:33:51.310Z,10.40
2023-04-06T16:36:24.210Z,9.07
2023-04-06T16:38:53.840Z,9.18
2023-04-06T16:41:22.878Z,10.80
2023-04-06T16:43:53.331Z,10.10
2023-04-06T16:46:21.749Z,10.50
2023-04-06T16:48:50.580Z,10.50
2023-04-06T16:51:19.003Z,11.50
2023-04-06T16:53:48.956Z,9.75
2023-04-06T16:56:17.807Z,10.00
2023-04-06T16:58:46.878Z,10.52
2023-04-06T17:01:23.528Z,10.82
2023-04-06T17:03:52.485Z,10.05
2023-04-06T17:06:21.501Z,11.75
2023-04-06T17:08:50.935Z,10.57
2023-04-06T17:11:23.692Z,11.57
2023-04-06T17:13:57.367Z,10.65
2023-04-06T17:16:29.162Z,11.40
2023-04-06T17:18:58.253Z,11.20
2023-04-06T17:21:26.855Z,10.85
2023-04-06T17:23:55.573Z,10.45
2023-04-06T17:26:24.019Z,9.70
2023-04-06T17:28:52.557Z,10.60
2023-04-06T17:31:22.388Z,9.90
2023-04-06T17:33:52.712Z,10.65
2023-04-06T17:36:21.959Z,10.25
2023-04-06T17:38:50.644Z,10.55
2023-04-06T17:41:19.349Z,10.60
2023-04-06T17:43:48.406Z,10.77
2023-04-06T17:46:17.222Z,9.18
2023-04-06T17:48:46.895Z,10.40
2023-04-06T17:51:19.376Z,10.20
2023-04-06T17:53:47.972Z,9.85
2023-04-06T17:56:16.562Z,10.73
2023-04-06T17:58:45.409Z,11.43
2023-04-06T18:01:14.735Z,12.38
2023-04-06T18:03:43.241Z,12.50
2023-04-06T18:06:12.857Z,12.43
2023-04-06T18:08:42.729Z,12.13
2023-04-06T18:11:16.198Z,11.93
2023-04-06T18:13:44.671Z,13.82
2023-04-06T18:16:13.140Z,11.50
2023-04-06T18:18:41.629Z,12.90
2023-04-06T18:21:10.386Z,12.07
2023-04-06T18:23:38.956Z,12.43
2023-04-06T18:26:09.315Z,13.43
2023-04-06T18:28:37.737Z,12.68
2023-04-06T18:31:06.199Z,13.38
2023-04-06T18:33:34.627Z,13.43
2023-04-06T18:36:03.053Z,12.15
2023-04-06T18:38:31.537Z,12.40
2023-04-06T18:41:00.089Z,13.15
2023-04-06T18:43:30.003Z,13.23
2023-04-06T18:46:00.570Z,13.27
2023-04-06T18:48:29.121Z,13.52
2023-04-06T18:51:01.945Z,14.15
2023-04-06T18:53:30.714Z,13.77
2023-04-06T18:55:59.203Z,14.00
2023-04-06T18:58:28.205Z,14.70
2023-04-06T19:00:58.504Z,14.43
2023-04-06T19:03:27.659Z,15.70
2023-04-06T19:05:56.388Z,14.52
2023-04-06T19:08:24.809Z,13.63
2023-04-06T19:10:54.058Z,15.20
2023-04-06T19:13:22.479Z,14.50
2023-04-06T19:15:51.249Z,14.98
2023-04-06T19:18:21.388Z,15.07
2023-04-06T19:20:49.835Z,15.23
2023-04-06T19:23:18.253Z,15.27
2023-04-06T19:25:46.835Z,15.23
2023-04-06T19:28:15.263Z,13.88
2023-04-06T19:30:43.727Z,14.73
2023-04-06T19:33:12.936Z,14.98
2023-04-06T19:35:42.883Z,14.57
2023-04-06T19:38:11.326Z,14.90
2023-04-06T19:40:39.791Z,15.63
2023-04-06T19:43:08.260Z,13.93
2023-04-06T19:45:36.839Z,15.73
2023-04-06T19:48:05.299Z,16.25
2023-04-06T19:50:33.991Z,16.02
2023-04-06T19:53:03.889Z,14.52
2023-04-06T19:55:32.642Z,15.25
2023-04-06T19:58:01.059Z,15.57
2023-04-06T20:00:29.694Z,15.60
2023-04-06T20:02:58.367Z,15.25
2023-04-06T20:05:26.971Z,15.38
2023-04-06T20:07:55.477Z,15.13
2023-04-06T20:10:25.597Z,13.95
2023-04-06T20:12:54.040Z,15.70
2023-04-06T20:15:23.250Z,15.90
2023-04-06T20:17:51.862Z,15.35
2023-04-06T20:20:20.617Z,14.50
2023-04-06T20:22:50.137Z,15.95
2023-04-06T20:25:18.959Z,16.10
2023-04-06T20:27:49.087Z,15.18
2023-04-06T20:30:17.882Z,15.60
2023-04-06T20:32:46.515Z,16.08
2023-04-06T20:35:15.516Z,15.57
2023-04-06T20:37:44.052Z,16.13
2023-04-06T20:40:13.310Z,16.05
2023-04-06T20:42:41.766Z,15.90
2023-04-06T20:45:12.474Z,15.52
2023-04-06T20:47:41.018Z,16.50
2023-04-06T20:50:10.542Z,15.93
2023-04-06T20:52:39.160Z,15.63
2023-04-06T20:55:07.936Z,16.60
2023-04-06T20:57:36.364Z,15.93
2023-04-06T21:00:05.331Z,17.50
2023-04-06T21:02:35.535Z,16.73
2023-04-06T21:05:04.173Z,18.00
2023-04-06T21:07:32.730Z,19.13
2023-04-06T21:10:01.457Z,19.55
2023-04-06T21:12:29.903Z,19.98
2023-04-06T21:14:58.465Z,19.98
2023-04-06T21:17:26.917Z,20.08
2023-04-06T21:19:56.749Z,18.08
2023-04-06T21:22:25.222Z,16.90
2023-04-06T21:24:53.841Z,17.13
2023-04-06T21:27:22.593Z,17.90
2023-04-06T21:29:51.171Z,16.83
2023-04-06T21:32:19.825Z,16.95
2023-04-06T21:34:48.884Z,17.02
2023-04-06T21:37:19.834Z,17.52
2023-04-06T21:39:48.513Z,17.48
2023-04-06T21:42:17.027Z,18.10
2023-04-06T21:44:45.510Z,17.20
2023-04-06T21:47:14.051Z,15.70
2023-04-06T21:49:42.531Z,15.98
2023-04-06T21:52:11.032Z,17.33
2023-04-06T21:54:40.843Z,18.45
2023-04-06T21:57:09.279Z,17.65
2023-04-06T21:59:37.703Z,17.20
2023-04-06T22:02:06.301Z,17.70
2023-04-06T22:04:35.012Z,17.42
2023-04-06T22:07:03.486Z,19.23
2023-04-06T22:09:31.934Z,17.33
2023-04-06T22:12:01.831Z,17.75
2023-04-06T22:14:30.757Z,16.67
2023-04-06T22:16:59.198Z,17.35
2023-04-06T22:19:27.632Z,16.00
2023-04-06T22:21:56.032Z,16.73
2023-04-06T22:24:24.458Z,18.67
2023-04-06T22:26:52.881Z,18.13
2023-04-06T22:29:22.696Z,17.33
2023-04-06T22:31:51.202Z,18.55
2023-04-06T22:34:19.675Z,18.55
2023-04-06T22:36:48.128Z,17.58
2023-04-06T22:39:16.767Z,18.60
2023-04-06T22:41:45.717Z,18.58
2023-04-06T22:44:14.301Z,18.08
2023-04-06T22:46:44.149Z,19.40
2023-04-06T22:49:12.601Z,17.85
2023-04-06T22:51:42.159Z,21.02
2023-04-06T22:54:10.847Z,20.48
2023-04-06T22:56:39.361Z,21.27
2023-04-06T22:59:07.805Z,21.05
2023-04-06T23:01:36.571Z,21.63
2023-04-06T23:04:06.775Z,22.80
2023-04-06T23:06:35.349Z,22.52
2023-04-06T23:09:04.132Z,21.05
2023-04-06T23:11:32.584Z,21.23
2023-04-06T23:14:01.460Z,22.33
2023-04-06T23:16:29.958Z,21.42
2023-04-06T23:18:58.421Z,21.30
2023-04-06T23:21:28.312Z,21.08
2023-04-06T23:23:56.724Z,23.17
2023-04-06T23:26:25.486Z,22.98
2023-04-06T23:28:53.919Z,23.27
2023-04-06T23:31:22.405Z,23.90
2023-04-06T23:33:51.123Z,23.77
2023-04-06T23:36:19.561Z,24.48
2023-04-06T23:38:49.328Z,23.20
2023-04-06T23:41:17.781Z,24.20
2023-04-06T23:43:46.417Z,25.00
2023-04-06T23:46:17.518Z,23.75
2023-04-06T23:48:46.212Z,25.48
2023-04-06T23:51:14.830Z,25.42
2023-04-06T23:53:43.267Z,26.25
2023-04-06T23:56:13.111Z,25.77
2023-04-06T23:58:41.614Z,26.90
